Accueil
METAR-TAF:

METAR-TAF

Aéroports :

Laupheim, Allemagne

latitude: 48-13N, longitude: 009-55E, altitude: 538 m

Observation

Le bulletin a été fait il y a 1 heure et 10 minutes, à 05:20 UTC
Vent 3 kt de sud/sud-ouest
Température 17°C
Humidité 77%
Pression 1021 hPa
Visibilité 10 km ou plus
Nuages épars à une hauteur de 6000 ft

METAR: ETHL 200520Z 20003KT 9999 SCT060 17/13 Q1021 BLACKBLU+BLU+

Heure: 08:30 (06:30 UTC)

Prévision

Le bulletin a été fait il y a 2 heures et 4 minutes, à 04:26 UTC
Prévision valable du 20 à 05 UTC au 20 à 14 UTC
Vent 3 kt de direction variable
Visibilité 10 km ou plus
Quelques nuages à une hauteur de 7000 ft

TAF: ETHL 200426Z 2005/2014 VRB03KT 9999 NSW FEW070

Observations et prévisions météorologiques de plus de 4000 aéroports (messages METAR et TAF).

Les stations disponibles sont représentées par des disques jaunes et rouges sur la carte.

Passer la souris dessus pour voir le nom de la station.

Cliquer dessus pour voir les observations et prévisions météorologiques.

Pour changer de carte: cliquez sur les boutons verts avec une croix noire pour zoomer, sur le bouton vert avec un tiret pour effectuer un zoom arrière, ou sur les flèches vertes pour les cartes adjacentes.


METAR-TAF: